Cupertino, California
Current Conditions -  °F | °C
As of 12:53 PM on Friday 19 Dec 2014 (Local Time) from KSJC Reporting Station
Light Rain Light Rain  
Wind Chill: 56°   Ceiling: 10000
Heat Index: 56°   Visibility: 9mi
Dew Point: 55°   Wind: 10mph
Humidity: 97%   Direction: 110°ESE
Pressure: 30.13"   Gusts: NA
Location:  37.32°N, 122.02°W
Report Text: KSJC 192053Z 11009KT 9SM -RA FEW007 SCT046 OVC100 13/13 A3013 RMK AO2 SLP203 P0004 60006 T01330128 58017
Loading
Personal Weather Stations






























Interactive Weather Map New forecast layout! Learn more

10-Day Weather Forecast

Advertisements
Track Severe Weather on mobile